createdAt,value
2022-08-12T00:00:07.425Z,81.90
2022-08-12T00:02:54.410Z,82.00
2022-08-12T00:06:04.499Z,82.20
2022-08-12T00:08:51.670Z,82.00
2022-08-12T00:11:37.695Z,82.70
2022-08-12T00:14:22.921Z,82.00
2022-08-12T00:17:09.544Z,82.20
2022-08-12T00:19:54.889Z,82.40
2022-08-12T00:22:41.017Z,83.30
2022-08-12T00:26:01.312Z,82.80
2022-08-12T00:28:33.712Z,83.00
2022-08-12T00:31:19.579Z,83.40
2022-08-12T00:34:05.533Z,83.50
2022-08-12T00:36:51.391Z,83.70
2022-08-12T00:39:37.088Z,84.00
2022-08-12T00:42:10.968Z,83.80
2022-08-12T00:44:40.240Z,83.60
2022-08-12T00:47:24.647Z,83.60
2022-08-12T00:49:54.326Z,83.80
2022-08-12T00:52:22.020Z,83.90
2022-08-12T00:54:57.283Z,83.80
2022-08-12T00:57:29.705Z,83.70
2022-08-12T01:00:02.356Z,83.60
2022-08-12T01:02:34.548Z,83.60
2022-08-12T01:05:34.475Z,83.70
2022-08-12T01:08:19.690Z,83.50
2022-08-12T01:11:06.229Z,84.10
2022-08-12T01:13:39.030Z,83.20
2022-08-12T01:16:09.058Z,83.50
2022-08-12T01:18:38.459Z,84.00
2022-08-12T01:21:32.548Z,83.20
2022-08-12T01:24:28.010Z,83.30
2022-08-12T01:26:55.055Z,83.30
2022-08-12T01:29:32.790Z,83.50
2022-08-12T01:32:06.283Z,83.60
2022-08-12T01:34:39.370Z,83.50
2022-08-12T01:37:09.461Z,83.70
2022-08-12T01:40:34.258Z,83.80
2022-08-12T01:42:45.978Z,84.10
2022-08-12T01:45:14.067Z,84.10
2022-08-12T01:47:49.679Z,83.80
2022-08-12T01:50:26.590Z,83.50
2022-08-12T01:53:02.304Z,83.50
2022-08-12T01:55:38.298Z,83.60
2022-08-12T01:58:26.039Z,83.50
2022-08-12T02:01:01.147Z,83.60
2022-08-12T02:03:52.364Z,83.60
2022-08-12T02:06:52.793Z,83.80
2022-08-12T02:09:46.258Z,83.90
2022-08-12T02:12:54.774Z,84.30
2022-08-12T02:15:45.084Z,84.80
2022-08-12T02:18:33.034Z,85.00
2022-08-12T02:21:07.257Z,84.90
2022-08-12T02:23:36.343Z,84.70
2022-08-12T02:26:09.387Z,84.80
2022-08-12T02:28:38.583Z,84.90
2022-08-12T02:31:09.023Z,85.60
2022-08-12T02:33:38.108Z,86.00
2022-08-12T02:36:06.107Z,86.20
2022-08-12T02:38:34.102Z,86.50
2022-08-12T02:41:04.275Z,86.70
2022-08-12T02:43:44.490Z,86.80
2022-08-12T02:46:15.724Z,87.00
2022-08-12T02:49:04.851Z,87.10
2022-08-12T02:51:36.659Z,87.20
2022-08-12T02:54:06.386Z,87.50
2022-08-12T02:56:41.025Z,87.60
2022-08-12T02:59:11.109Z,87.80
2022-08-12T03:01:47.799Z,87.80
2022-08-12T03:04:43.483Z,87.90
2022-08-12T03:07:28.843Z,87.80
2022-08-12T03:10:17.695Z,87.60
2022-08-12T03:12:49.775Z,87.70
2022-08-12T03:15:22.878Z,88.00
2022-08-12T03:18:24.062Z,88.00
2022-08-12T03:20:54.366Z,88.30
2022-08-12T03:23:29.954Z,88.30
2022-08-12T03:26:02.395Z,88.40
2022-08-12T03:28:53.264Z,88.30
2022-08-12T03:31:21.943Z,88.40
2022-08-12T03:34:01.572Z,88.40
2022-08-12T03:36:34.824Z,88.20
2022-08-12T03:39:17.848Z,88.10
2022-08-12T03:42:04.241Z,88.20
2022-08-12T03:45:09.245Z,88.50
2022-08-12T03:48:23.070Z,89.10
2022-08-12T03:51:09.150Z,89.10
2022-08-12T03:53:54.773Z,89.00
2022-08-12T03:56:40.061Z,89.20
2022-08-12T03:59:26.759Z,89.50
2022-08-12T04:01:59.929Z,89.70
2022-08-12T04:04:35.253Z,90.20
2022-08-12T04:07:09.925Z,89.80
2022-08-12T04:09:42.852Z,90.00
2022-08-12T04:12:29.950Z,90.00
2022-08-12T04:15:01.094Z,90.00
2022-08-12T04:17:28.702Z,89.90
2022-08-12T04:19:57.321Z,90.00
2022-08-12T04:22:29.467Z,90.00
2022-08-12T04:25:01.305Z,90.10
2022-08-12T04:27:30.280Z,90.10
2022-08-12T04:30:30.376Z,90.10
2022-08-12T04:32:46.020Z,90.10
2022-08-12T04:35:13.361Z,90.10
2022-08-12T04:37:59.314Z,90.20
2022-08-12T04:40:30.257Z,90.20
2022-08-12T04:42:57.630Z,90.20
2022-08-12T04:45:24.923Z,90.30
2022-08-12T04:47:52.656Z,90.30
2022-08-12T04:50:27.288Z,90.30
2022-08-12T04:53:03.182Z,90.30
2022-08-12T04:55:30.430Z,90.60
2022-08-12T04:57:57.352Z,90.60
2022-08-12T05:00:24.134Z,90.30
2022-08-12T05:02:51.065Z,90.40
2022-08-12T05:05:23.108Z,90.40
2022-08-12T05:07:54.407Z,90.40
2022-08-12T05:10:34.059Z,90.30
2022-08-12T05:13:07.324Z,90.30
2022-08-12T05:15:36.164Z,90.40
2022-08-12T05:18:19.123Z,90.40
2022-08-12T05:20:48.366Z,90.30
2022-08-12T05:23:24.235Z,90.40
2022-08-12T05:25:52.390Z,90.40
2022-08-12T05:28:19.220Z,90.50
2022-08-12T05:30:46.416Z,90.40
2022-08-12T05:33:15.529Z,90.30
2022-08-12T05:35:44.527Z,90.40
2022-08-12T05:38:31.557Z,90.40
2022-08-12T05:40:59.062Z,90.30
2022-08-12T05:43:26.203Z,90.30
2022-08-12T05:45:53.094Z,90.30
2022-08-12T05:48:19.828Z,90.20
2022-08-12T05:50:47.499Z,90.10
2022-08-12T05:53:14.626Z,90.10
2022-08-12T05:55:41.448Z,90.10
2022-08-12T05:58:08.949Z,90.00
2022-08-12T06:00:37.163Z,89.90
2022-08-12T06:03:06.316Z,89.50
2022-08-12T06:05:43.093Z,89.10
2022-08-12T06:08:22.708Z,89.10
2022-08-12T06:10:52.145Z,89.00
2022-08-12T06:13:28.685Z,88.80
2022-08-12T06:16:07.903Z,88.60
2022-08-12T06:18:35.556Z,88.60
2022-08-12T06:21:02.593Z,88.50
2022-08-12T06:23:30.247Z,88.30
2022-08-12T06:25:58.039Z,88.20
2022-08-12T06:28:25.633Z,88.30
2022-08-12T06:31:22.068Z,88.30
2022-08-12T06:33:57.713Z,88.00
2022-08-12T06:36:32.677Z,88.00
2022-08-12T06:39:01.057Z,87.70
2022-08-12T06:42:04.941Z,87.60
2022-08-12T06:44:33.821Z,87.50
2022-08-12T06:47:00.817Z,87.30
2022-08-12T06:49:35.757Z,86.90
2022-08-12T06:52:06.431Z,86.90
2022-08-12T06:54:33.283Z,86.80
2022-08-12T06:58:06.437Z,87.00
2022-08-12T06:59:51.093Z,86.70
2022-08-12T07:02:20.614Z,86.60
2022-08-12T07:04:48.255Z,86.60
2022-08-12T07:07:18.739Z,86.20
2022-08-12T07:10:01.262Z,87.40
2022-08-12T07:12:32.766Z,85.90
2022-08-12T07:15:01.965Z,85.50
2022-08-12T07:17:36.248Z,84.90
2022-08-12T07:20:51.062Z,84.30
2022-08-12T07:23:01.746Z,83.50
2022-08-12T07:25:37.628Z,83.10
2022-08-12T07:28:19.125Z,83.00
2022-08-12T07:30:50.859Z,82.70
2022-08-12T07:33:20.200Z,82.20
2022-08-12T07:35:48.255Z,81.80
2022-08-12T07:38:29.156Z,81.30
2022-08-12T07:41:15.658Z,81.30
2022-08-12T07:43:59.051Z,80.80
2022-08-12T07:46:36.925Z,80.60
2022-08-12T07:49:07.162Z,80.70
2022-08-12T07:51:34.623Z,80.50
2022-08-12T07:54:03.020Z,80.00
2022-08-12T07:56:31.348Z,79.80
2022-08-12T07:58:59.391Z,79.90
2022-08-12T08:01:27.147Z,79.40
2022-08-12T08:04:16.611Z,79.10
2022-08-12T08:06:46.900Z,79.10
2022-08-12T08:09:16.737Z,79.10
2022-08-12T08:12:02.262Z,78.40
2022-08-12T08:14:29.417Z,77.90
2022-08-12T08:16:58.351Z,77.60
2022-08-12T08:19:26.906Z,77.30
2022-08-12T08:21:57.273Z,77.30
2022-08-12T08:24:27.971Z,77.60
2022-08-12T08:26:58.629Z,77.20
2022-08-12T08:29:25.557Z,77.30
2022-08-12T08:31:58.700Z,77.20
2022-08-12T08:34:53.093Z,77.30
2022-08-12T08:37:20.689Z,76.30
2022-08-12T08:39:47.616Z,76.50
2022-08-12T08:42:33.732Z,77.00
2022-08-12T08:45:13.079Z,76.60
2022-08-12T08:47:45.115Z,76.60
2022-08-12T08:50:15.120Z,76.10
2022-08-12T08:52:45.756Z,75.50
2022-08-12T08:55:14.072Z,75.40
2022-08-12T08:57:44.630Z,74.50
2022-08-12T09:00:17.280Z,73.70
2022-08-12T09:02:49.481Z,73.90
2022-08-12T09:05:27.384Z,72.90
2022-08-12T09:08:12.047Z,71.90
2022-08-12T09:10:45.924Z,71.70
2022-08-12T09:16:20.389Z,72.10
2022-08-12T09:18:48.385Z,71.20
2022-08-12T09:21:20.267Z,71.10
2022-08-12T09:23:59.956Z,71.50
2022-08-12T09:26:33.804Z,72.50
2022-08-12T09:29:11.829Z,72.30
2022-08-12T09:32:03.990Z,72.20
2022-08-12T09:34:34.186Z,72.10
2022-08-12T09:37:19.353Z,71.20
2022-08-12T09:40:02.355Z,71.40
2022-08-12T09:43:11.074Z,70.30
2022-08-12T09:46:11.612Z,70.60
2022-08-12T09:48:36.242Z,70.30
2022-08-12T09:51:16.530Z,71.00
2022-08-12T09:54:05.476Z,71.00
2022-08-12T09:56:58.210Z,71.30
2022-08-12T10:00:17.559Z,69.60
2022-08-12T10:02:43.109Z,70.60
2022-08-12T10:04:59.588Z,71.40
2022-08-12T10:07:28.533Z,70.90
2022-08-12T10:09:59.982Z,69.80
2022-08-12T10:13:07.304Z,69.60
2022-08-12T10:16:01.743Z,70.40
2022-08-12T10:18:20.102Z,70.60
2022-08-12T10:20:47.060Z,70.30
2022-08-12T10:23:13.995Z,70.50
2022-08-12T10:26:37.126Z,70.60
2022-08-12T10:30:01.959Z,70.70
2022-08-12T10:32:21.246Z,71.20
2022-08-12T10:34:40.515Z,71.10
2022-08-12T10:38:08.736Z,71.00
2022-08-12T10:40:11.400Z,71.40
2022-08-12T10:43:00.930Z,72.10
2022-08-12T10:45:30.474Z,72.10
2022-08-12T10:48:20.387Z,72.10
2022-08-12T10:51:00.855Z,72.70
2022-08-12T10:53:45.665Z,72.70
2022-08-12T10:56:17.723Z,71.90
2022-08-12T10:58:46.078Z,71.70
2022-08-12T11:01:48.922Z,72.00
2022-08-12T11:04:26.006Z,72.40
2022-08-12T11:07:10.015Z,72.10
2022-08-12T11:10:00.787Z,71.90
2022-08-12T11:12:55.020Z,71.40
2022-08-12T11:15:24.304Z,71.00
2022-08-12T11:18:03.125Z,70.80
2022-08-12T11:20:31.214Z,71.30
2022-08-12T11:23:36.224Z,70.00
2022-08-12T11:25:57.574Z,69.90
2022-08-12T11:28:33.948Z,69.50
2022-08-12T11:31:06.675Z,70.30
2022-08-12T11:34:05.234Z,69.60
2022-08-12T11:36:21.844Z,69.30
2022-08-12T11:38:50.513Z,69.20
2022-08-12T11:41:28.104Z,69.90
2022-08-12T11:44:35.117Z,70.00
2022-08-12T11:46:52.768Z,69.80
2022-08-12T11:49:31.354Z,70.10
2022-08-12T11:52:00.953Z,70.00
2022-08-12T11:54:29.842Z,70.20
2022-08-12T11:57:00.364Z,69.90
2022-08-12T12:02:20.067Z,70.10
2022-08-12T12:04:52.320Z,70.40
2022-08-12T12:07:22.654Z,70.20
2022-08-12T12:10:01.500Z,70.10
2022-08-12T12:12:28.301Z,69.20
2022-08-12T12:14:55.842Z,69.50
2022-08-12T12:17:24.676Z,69.30
2022-08-12T12:19:53.279Z,69.60
2022-08-12T12:22:23.603Z,69.90
2022-08-12T12:24:58.113Z,70.00
2022-08-12T12:27:39.372Z,69.50
2022-08-12T12:30:18.249Z,70.10
2022-08-12T12:32:56.483Z,69.40
2022-08-12T12:36:18.630Z,70.00
2022-08-12T12:38:12.751Z,70.20
2022-08-12T12:40:43.774Z,70.00
2022-08-12T12:43:12.248Z,69.90
2022-08-12T12:45:44.577Z,69.00
2022-08-12T12:48:18.449Z,68.50
2022-08-12T12:51:09.499Z,69.30
2022-08-12T12:54:07.523Z,70.20
2022-08-12T12:56:34.179Z,69.60
2022-08-12T12:59:03.961Z,69.20
2022-08-12T13:01:38.375Z,68.70
2022-08-12T13:04:12.118Z,67.80
2022-08-12T13:06:41.208Z,68.00
2022-08-12T13:09:12.874Z,68.00
2022-08-12T13:11:41.998Z,68.10
2022-08-12T13:14:28.040Z,68.20
2022-08-12T13:16:57.774Z,68.10
2022-08-12T13:19:37.416Z,67.80
2022-08-12T13:22:23.550Z,68.30
2022-08-12T13:24:56.056Z,67.50
2022-08-12T13:27:50.715Z,68.20
2022-08-12T13:30:23.746Z,68.50
2022-08-12T13:32:58.515Z,68.30
2022-08-12T13:36:02.943Z,68.10
2022-08-12T13:38:13.415Z,68.80
2022-08-12T13:40:40.513Z,68.60
2022-08-12T13:43:07.481Z,68.20
2022-08-12T13:45:36.650Z,68.40
2022-08-12T13:48:07.862Z,68.10
2022-08-12T13:50:43.586Z,68.50
2022-08-12T13:53:24.622Z,68.50
2022-08-12T13:56:02.056Z,69.60
2022-08-12T13:58:30.918Z,69.80
2022-08-12T14:01:05.990Z,69.80
2022-08-12T14:03:51.065Z,69.70
2022-08-12T14:06:19.186Z,68.80
2022-08-12T14:08:50.158Z,69.60
2022-08-12T14:11:19.216Z,67.90
2022-08-12T14:14:03.774Z,68.00
2022-08-12T14:16:48.175Z,67.40
2022-08-12T14:19:24.860Z,67.70
2022-08-12T14:22:00.610Z,66.80
2022-08-12T14:24:35.646Z,66.30
2022-08-12T14:27:09.378Z,66.20
2022-08-12T14:30:06.118Z,65.80
2022-08-12T14:32:35.222Z,66.90
2022-08-12T14:35:09.161Z,67.00
2022-08-12T14:37:55.318Z,67.10
2022-08-12T14:40:27.879Z,66.50
2022-08-12T14:42:57.212Z,65.80
2022-08-12T14:45:37.162Z,65.70
2022-08-12T14:48:13.064Z,65.20
2022-08-12T14:52:16.204Z,65.30
2022-08-12T14:57:05.565Z,65.10
2022-08-12T14:59:26.378Z,65.30
2022-08-12T15:01:54.547Z,65.50
2022-08-12T15:04:28.663Z,64.80
2022-08-12T15:06:56.447Z,65.20
2022-08-12T15:09:28.596Z,66.60
2022-08-12T15:12:03.090Z,65.40
2022-08-12T15:14:35.321Z,65.80
2022-08-12T15:17:07.051Z,66.10
2022-08-12T15:20:28.470Z,66.20
2022-08-12T15:22:37.480Z,65.90
2022-08-12T15:25:07.680Z,65.70
2022-08-12T15:28:04.710Z,66.40
2022-08-12T15:30:30.317Z,66.40
2022-08-12T15:32:57.483Z,65.30
2022-08-12T15:35:27.580Z,65.80
2022-08-12T15:38:17.205Z,65.90
2022-08-12T15:40:50.140Z,65.80
2022-08-12T15:43:51.993Z,65.30
2022-08-12T15:46:06.437Z,64.80
2022-08-12T15:48:34.330Z,65.20
2022-08-12T15:51:03.149Z,64.20
2022-08-12T15:53:53.388Z,63.50
2022-08-12T15:56:29.650Z,63.70
2022-08-12T15:59:00.780Z,63.70
2022-08-12T16:01:35.630Z,63.50
2022-08-12T16:04:05.404Z,64.00
2022-08-12T16:09:56.758Z,63.20
2022-08-12T16:12:12.013Z,63.70
2022-08-12T16:14:39.272Z,63.80
2022-08-12T16:17:09.000Z,64.60
2022-08-12T16:20:03.083Z,64.80
2022-08-12T16:22:24.610Z,65.00
2022-08-12T16:24:54.119Z,64.80
2022-08-12T16:27:23.781Z,63.70
2022-08-12T16:29:57.275Z,63.90
2022-08-12T16:32:31.583Z,64.30
2022-08-12T16:34:59.890Z,64.80
2022-08-12T16:37:32.622Z,64.40
2022-08-12T16:40:05.955Z,64.80
2022-08-12T16:42:39.476Z,65.30
2022-08-12T16:45:13.915Z,64.80
2022-08-12T16:47:58.659Z,64.50
2022-08-12T16:50:30.687Z,64.60
2022-08-12T16:53:02.511Z,64.20
2022-08-12T16:55:41.925Z,64.20
2022-08-12T16:58:27.917Z,63.80
2022-08-12T17:00:57.025Z,63.10
2022-08-12T17:03:28.873Z,63.30
2022-08-12T17:05:57.428Z,63.70
2022-08-12T17:08:29.149Z,63.90
2022-08-12T17:10:56.490Z,64.60
2022-08-12T17:13:26.223Z,64.40
2022-08-12T17:16:04.823Z,64.70
2022-08-12T17:18:43.188Z,65.20
2022-08-12T17:21:40.605Z,65.30
2022-08-12T17:24:15.356Z,65.80
2022-08-12T17:26:49.196Z,65.70
2022-08-12T17:29:24.256Z,65.00
2022-08-12T17:32:08.603Z,65.00
2022-08-12T17:34:55.290Z,65.10
2022-08-12T17:37:22.369Z,64.80
2022-08-12T17:40:12.698Z,65.10
2022-08-12T17:42:40.628Z,65.20
2022-08-12T17:45:17.235Z,65.80
2022-08-12T17:48:01.312Z,65.40
2022-08-12T17:50:33.811Z,65.60
2022-08-12T17:53:03.093Z,65.80
2022-08-12T17:55:40.427Z,66.40
2022-08-12T17:58:13.787Z,67.10
2022-08-12T18:00:44.233Z,66.30
2022-08-12T18:03:57.505Z,66.60
2022-08-12T18:06:08.773Z,67.10
2022-08-12T18:08:53.447Z,68.00
2022-08-12T18:12:06.028Z,68.40
2022-08-12T18:14:29.094Z,68.70
2022-08-12T18:17:00.273Z,68.60
2022-08-12T18:20:04.014Z,69.50
2022-08-12T18:22:21.917Z,69.90
2022-08-12T18:25:02.693Z,70.30
2022-08-12T18:27:44.164Z,70.50
2022-08-12T18:30:16.287Z,70.80
2022-08-12T18:32:58.618Z,70.80
2022-08-12T18:35:47.669Z,71.10
2022-08-12T18:38:19.868Z,71.10
2022-08-12T18:41:09.642Z,71.40
2022-08-12T18:43:59.321Z,71.50
2022-08-12T18:46:32.306Z,71.40
2022-08-12T18:49:18.130Z,71.50
2022-08-12T18:52:02.511Z,71.70
2022-08-12T18:54:35.350Z,71.80
2022-08-12T18:57:16.452Z,71.90
2022-08-12T18:59:59.653Z,72.00
2022-08-12T19:02:33.869Z,72.00
2022-08-12T19:05:09.976Z,72.30
2022-08-12T19:07:58.182Z,72.50
2022-08-12T19:10:30.540Z,72.30
2022-08-12T19:13:23.790Z,72.10
2022-08-12T19:15:57.456Z,72.10
2022-08-12T19:18:29.391Z,72.50
2022-08-12T19:20:58.401Z,72.60
2022-08-12T19:23:35.001Z,72.60
2022-08-12T19:26:10.555Z,72.70
2022-08-12T19:28:40.680Z,72.30
2022-08-12T19:31:45.061Z,72.30
2022-08-12T19:38:02.719Z,72.40
2022-08-12T19:40:31.861Z,72.70
2022-08-12T19:43:19.369Z,73.00
2022-08-12T19:45:51.580Z,73.30
2022-08-12T19:48:20.348Z,73.40
2022-08-12T19:50:50.140Z,73.50
2022-08-12T19:53:20.159Z,73.70
2022-08-12T19:55:54.611Z,73.80
2022-08-12T19:58:23.565Z,74.10
2022-08-12T20:00:54.615Z,73.90
2022-08-12T20:03:39.415Z,74.10
2022-08-12T20:06:21.829Z,74.10
2022-08-12T20:08:56.759Z,75.00
2022-08-12T20:12:11.566Z,74.50
2022-08-12T20:14:19.448Z,74.60
2022-08-12T20:16:52.861Z,74.80
2022-08-12T20:19:52.945Z,75.10
2022-08-12T20:22:24.754Z,75.20
2022-08-12T20:25:00.906Z,75.60
2022-08-12T20:28:03.197Z,75.70
2022-08-12T20:30:18.237Z,75.80
2022-08-12T20:33:00.610Z,76.10
2022-08-12T20:35:38.983Z,76.40
2022-08-12T20:38:26.525Z,76.50
2022-08-12T20:40:55.462Z,76.80
2022-08-12T20:43:24.158Z,77.10
2022-08-12T20:45:57.391Z,77.20
2022-08-12T20:48:26.162Z,77.40
2022-08-12T20:50:56.032Z,77.40
2022-08-12T20:53:28.890Z,77.50
2022-08-12T20:56:30.541Z,77.60
2022-08-12T20:59:01.018Z,77.40
2022-08-12T21:01:46.493Z,77.40
2022-08-12T21:04:35.316Z,77.50
2022-08-12T21:07:04.573Z,77.70
2022-08-12T21:09:42.051Z,77.80
2022-08-12T21:12:31.286Z,78.00
2022-08-12T21:15:24.453Z,78.10
2022-08-12T21:18:08.136Z,78.10
2022-08-12T21:20:37.882Z,78.40
2022-08-12T21:23:07.766Z,78.50
2022-08-12T21:25:44.431Z,78.60
2022-08-12T21:28:12.560Z,78.70
2022-08-12T21:31:10.443Z,78.90
2022-08-12T21:33:31.612Z,79.00
2022-08-12T21:36:02.558Z,79.20
2022-08-12T21:38:34.933Z,79.30
2022-08-12T21:41:06.702Z,79.50
2022-08-12T21:43:44.623Z,79.60
2022-08-12T21:46:35.407Z,79.80
2022-08-12T21:49:04.763Z,79.90
2022-08-12T21:51:49.223Z,79.80
2022-08-12T21:54:22.455Z,79.80
2022-08-12T21:56:53.673Z,80.10
2022-08-12T21:59:22.030Z,80.30
2022-08-12T22:01:49.842Z,80.50
2022-08-12T22:04:36.253Z,80.60
2022-08-12T22:07:04.535Z,80.70
2022-08-12T22:09:43.409Z,80.60
2022-08-12T22:12:29.508Z,80.80
2022-08-12T22:14:56.357Z,80.80
2022-08-12T22:17:49.574Z,80.90
2022-08-12T22:20:17.641Z,81.00
2022-08-12T22:22:53.921Z,81.00
2022-08-12T22:25:24.296Z,81.00
2022-08-12T22:28:12.272Z,81.10
2022-08-12T22:30:57.912Z,81.10
2022-08-12T22:33:24.880Z,81.10
2022-08-12T22:35:59.527Z,81.00
2022-08-12T22:38:29.713Z,81.30
2022-08-12T22:41:01.907Z,81.50
2022-08-12T22:44:01.044Z,81.40
2022-08-12T22:46:32.846Z,81.60
2022-08-12T22:48:59.674Z,81.70
2022-08-12T22:51:26.956Z,81.70
2022-08-12T22:53:55.755Z,81.70
2022-08-12T22:56:30.809Z,82.00
2022-08-12T22:59:02.648Z,81.90
2022-08-12T23:01:52.239Z,82.10
2022-08-12T23:04:28.042Z,82.10
2022-08-12T23:06:58.361Z,82.90
2022-08-12T23:09:34.704Z,82.40
2022-08-12T23:12:40.781Z,82.50
2022-08-12T23:15:13.747Z,82.50
2022-08-12T23:17:41.778Z,82.60
2022-08-12T23:20:11.236Z,82.90
2022-08-12T23:22:40.169Z,83.30
2022-08-12T23:25:18.840Z,83.60
2022-08-12T23:28:06.423Z,83.50
2022-08-12T23:30:58.676Z,83.40
2022-08-12T23:34:01.471Z,83.50
2022-08-12T23:36:31.912Z,83.70
2022-08-12T23:40:15.880Z,83.80
2022-08-12T23:42:18.006Z,84.00
2022-08-12T23:44:44.406Z,84.00
2022-08-12T23:47:12.672Z,84.20
2022-08-12T23:49:57.329Z,84.30
2022-08-12T23:52:28.532Z,84.50
2022-08-12T23:55:24.063Z,84.70
2022-08-12T23:58:17.279Z,84.80
